createdAt,value
2023-01-19T00:01:29.517Z,20.42
2023-01-19T00:03:57.883Z,20.59
2023-01-19T00:06:26.315Z,20.81
2023-01-19T00:08:54.888Z,20.88
2023-01-19T00:11:23.822Z,21.05
2023-01-19T00:13:52.010Z,21.40
2023-01-19T00:16:21.841Z,21.06
2023-01-19T00:18:51.919Z,21.19
2023-01-19T00:21:21.310Z,21.12
2023-01-19T00:23:49.623Z,21.26
2023-01-19T00:26:18.495Z,21.22
2023-01-19T00:28:46.621Z,21.25
2023-01-19T00:31:15.473Z,21.10
2023-01-19T00:33:44.052Z,21.23
2023-01-19T00:36:12.339Z,21.21
2023-01-19T00:38:40.612Z,21.32
2023-01-19T00:41:08.858Z,21.59
2023-01-19T00:43:37.052Z,21.45
2023-01-19T00:46:05.385Z,21.69
2023-01-19T00:48:33.866Z,21.62
2023-01-19T00:51:02.019Z,21.53
2023-01-19T00:53:30.333Z,21.65
2023-01-19T00:55:59.265Z,21.79
2023-01-19T00:58:27.394Z,21.86
2023-01-19T01:00:55.651Z,21.66
2023-01-19T01:03:24.002Z,21.83
2023-01-19T01:05:52.140Z,21.73
2023-01-19T01:08:20.281Z,21.96
2023-01-19T01:10:48.550Z,21.74
2023-01-19T01:13:21.301Z,21.73
2023-01-19T01:15:55.570Z,21.77
2023-01-19T01:18:24.465Z,21.71
2023-01-19T01:20:55.248Z,21.91
2023-01-19T01:23:24.738Z,22.00
2023-01-19T01:25:53.383Z,21.81
2023-01-19T01:28:21.596Z,21.96
2023-01-19T01:30:54.903Z,22.05
2023-01-19T01:33:40.884Z,21.79
2023-01-19T01:36:11.961Z,21.83
2023-01-19T01:38:41.399Z,21.90
2023-01-19T01:41:09.968Z,21.81
2023-01-19T01:43:48.606Z,21.84
2023-01-19T01:46:18.234Z,21.82
2023-01-19T01:48:57.451Z,21.76
2023-01-19T01:51:37.464Z,21.72
2023-01-19T01:54:18.390Z,21.63
2023-01-19T01:56:55.854Z,21.61
2023-01-19T01:59:31.234Z,21.80
2023-01-19T02:02:05.042Z,21.97
2023-01-19T02:04:33.591Z,21.86
2023-01-19T02:07:02.328Z,21.85
2023-01-19T02:09:33.674Z,21.89
2023-01-19T02:12:01.859Z,21.77
2023-01-19T02:14:29.986Z,21.47
2023-01-19T02:16:58.452Z,21.72
2023-01-19T02:19:33.160Z,21.98
2023-01-19T02:22:20.515Z,22.03
2023-01-19T02:24:49.621Z,22.02
2023-01-19T02:27:18.374Z,21.80
2023-01-19T02:29:46.746Z,21.89
2023-01-19T02:32:16.317Z,21.96
2023-01-19T02:34:44.505Z,21.88
2023-01-19T02:37:16.350Z,21.77
2023-01-19T02:39:54.899Z,22.02
2023-01-19T02:42:34.173Z,22.11
2023-01-19T02:45:04.992Z,22.01
2023-01-19T02:47:44.750Z,22.02
2023-01-19T02:50:37.918Z,22.16
2023-01-19T02:53:19.025Z,22.68
2023-01-19T02:55:55.488Z,22.51
2023-01-19T02:58:34.094Z,22.33
2023-01-19T03:01:47.447Z,22.23
2023-01-19T03:04:31.470Z,22.13
2023-01-19T03:07:09.468Z,22.22
2023-01-19T03:09:50.177Z,22.14
2023-01-19T03:12:31.295Z,22.30
2023-01-19T03:15:05.360Z,22.18
2023-01-19T03:17:36.183Z,22.24
2023-01-19T03:20:08.996Z,22.25
2023-01-19T03:22:37.069Z,22.54
2023-01-19T03:25:06.925Z,22.54
2023-01-19T03:27:40.168Z,22.38
2023-01-19T03:30:16.092Z,22.28
2023-01-19T03:33:03.598Z,22.08
2023-01-19T03:35:35.748Z,22.20
2023-01-19T03:38:07.853Z,22.16
2023-01-19T03:40:36.829Z,21.87
2023-01-19T03:43:06.501Z,21.94
2023-01-19T03:45:38.595Z,21.75
2023-01-19T03:48:07.954Z,21.64
2023-01-19T03:50:36.247Z,21.54
2023-01-19T03:53:14.611Z,21.58
2023-01-19T03:55:46.667Z,21.39
2023-01-19T03:58:18.238Z,21.45
2023-01-19T04:00:46.365Z,21.66
2023-01-19T04:03:16.798Z,21.92
2023-01-19T04:05:46.046Z,21.90
2023-01-19T04:08:14.243Z,22.13
2023-01-19T04:10:42.548Z,22.18
2023-01-19T04:13:11.152Z,22.54
2023-01-19T04:15:39.673Z,22.54
2023-01-19T04:18:09.136Z,22.57
2023-01-19T04:20:37.972Z,22.44
2023-01-19T04:23:06.174Z,22.90
2023-01-19T04:25:34.339Z,23.01
2023-01-19T04:28:02.789Z,22.93
2023-01-19T04:30:30.960Z,23.01
2023-01-19T04:33:00.102Z,23.14
2023-01-19T04:35:28.773Z,23.11
2023-01-19T04:37:57.179Z,22.91
2023-01-19T04:40:25.324Z,22.91
2023-01-19T04:42:56.108Z,22.93
2023-01-19T04:45:24.397Z,22.74
2023-01-19T04:47:52.728Z,22.95
2023-01-19T04:50:21.148Z,23.12
2023-01-19T04:52:49.313Z,22.92
2023-01-19T04:55:18.133Z,22.67
2023-01-19T04:57:47.941Z,22.90
2023-01-19T05:00:17.465Z,22.85
2023-01-19T05:02:45.738Z,22.66
2023-01-19T05:05:14.318Z,22.36
2023-01-19T05:07:43.747Z,22.38
2023-01-19T05:10:12.811Z,22.80
2023-01-19T05:12:41.134Z,23.09
2023-01-19T05:15:10.116Z,23.15
2023-01-19T05:17:38.492Z,23.53
2023-01-19T05:20:07.999Z,23.65
2023-01-19T05:22:36.249Z,23.40
2023-01-19T05:25:04.692Z,23.33
2023-01-19T05:27:33.095Z,23.40
2023-01-19T05:30:01.576Z,23.17
2023-01-19T05:32:29.829Z,23.50
2023-01-19T05:34:58.116Z,23.61
2023-01-19T05:37:26.482Z,23.59
2023-01-19T05:39:54.774Z,23.42
2023-01-19T05:42:23.051Z,23.24
2023-01-19T05:44:51.445Z,23.44
2023-01-19T05:47:19.666Z,23.29
2023-01-19T05:49:48.374Z,23.43
2023-01-19T05:52:16.689Z,23.46
2023-01-19T05:54:44.945Z,23.67
2023-01-19T05:57:13.300Z,23.54
2023-01-19T05:59:41.495Z,23.53
2023-01-19T06:02:09.616Z,23.61
2023-01-19T06:04:37.886Z,23.73
2023-01-19T06:07:06.667Z,23.74
2023-01-19T06:09:34.897Z,23.70
2023-01-19T06:12:03.946Z,23.81
2023-01-19T06:14:32.072Z,23.62
2023-01-19T06:17:00.624Z,23.52
2023-01-19T06:19:29.244Z,23.67
2023-01-19T06:21:57.441Z,23.68
2023-01-19T06:24:25.651Z,24.14
2023-01-19T06:26:53.957Z,24.20
2023-01-19T06:29:22.268Z,24.21
2023-01-19T06:31:51.022Z,24.29
2023-01-19T06:34:20.431Z,24.15
2023-01-19T06:36:48.625Z,24.12
2023-01-19T06:39:17.070Z,24.22
2023-01-19T06:41:45.337Z,24.06
2023-01-19T06:44:13.723Z,24.26
2023-01-19T06:46:41.917Z,24.43
2023-01-19T06:49:10.345Z,24.13
2023-01-19T06:51:38.763Z,24.37
2023-01-19T06:54:06.907Z,24.08
2023-01-19T06:56:35.190Z,24.23
2023-01-19T06:59:03.567Z,24.49
2023-01-19T07:01:32.418Z,24.59
2023-01-19T07:04:01.122Z,24.81
2023-01-19T07:06:29.433Z,24.74
2023-01-19T07:08:58.020Z,24.86
2023-01-19T07:11:33.006Z,24.57
2023-01-19T07:14:01.733Z,24.79
2023-01-19T07:16:30.122Z,24.67
2023-01-19T07:18:58.340Z,24.72
2023-01-19T07:21:29.096Z,24.82
2023-01-19T07:23:57.609Z,24.63
2023-01-19T07:26:25.854Z,24.37
2023-01-19T07:28:54.204Z,24.20
2023-01-19T07:31:23.017Z,24.59
2023-01-19T07:33:51.329Z,24.46
2023-01-19T07:36:19.508Z,24.59
2023-01-19T07:38:47.894Z,24.41
2023-01-19T07:41:16.258Z,24.39
2023-01-19T07:43:44.509Z,24.26
2023-01-19T07:46:13.235Z,24.47
2023-01-19T07:48:41.491Z,24.60
2023-01-19T07:51:12.740Z,23.67
2023-01-19T07:53:41.565Z,22.53
2023-01-19T07:56:11.152Z,21.11
2023-01-19T07:58:40.073Z,20.21
2023-01-19T08:01:10.361Z,19.23
2023-01-19T08:03:39.409Z,18.70
2023-01-19T08:06:20.299Z,19.03
2023-01-19T08:08:48.605Z,18.21
2023-01-19T08:11:17.846Z,17.52
2023-01-19T08:13:46.762Z,16.76
2023-01-19T08:16:15.030Z,16.24
2023-01-19T08:18:44.034Z,15.29
2023-01-19T08:21:12.386Z,14.96
2023-01-19T08:23:40.752Z,14.46
2023-01-19T08:26:27.306Z,14.57
2023-01-19T08:28:58.172Z,14.71
2023-01-19T08:31:27.403Z,14.68
2023-01-19T08:33:55.819Z,14.17
2023-01-19T08:36:24.099Z,13.79
2023-01-19T08:38:53.395Z,13.15
2023-01-19T08:41:21.854Z,12.78
2023-01-19T08:43:50.456Z,12.45
2023-01-19T08:46:19.387Z,11.99
2023-01-19T08:48:47.977Z,11.83
2023-01-19T08:51:17.144Z,11.84
2023-01-19T08:53:45.912Z,11.46
2023-01-19T08:56:14.447Z,11.24
2023-01-19T08:58:45.704Z,10.82
2023-01-19T09:01:15.007Z,10.38
2023-01-19T09:03:44.429Z,9.91
2023-01-19T09:06:16.025Z,9.42
2023-01-19T09:08:44.547Z,8.98
2023-01-19T09:11:14.881Z,8.89
2023-01-19T09:13:43.663Z,8.67
2023-01-19T09:16:12.093Z,8.32
2023-01-19T09:18:40.521Z,8.26
2023-01-19T09:21:10.200Z,8.05
2023-01-19T09:23:38.514Z,7.99
2023-01-19T09:26:06.782Z,8.11
2023-01-19T09:28:35.111Z,8.21
2023-01-19T09:31:08.429Z,8.25
2023-01-19T09:33:37.522Z,8.52
2023-01-19T09:36:06.435Z,8.51
2023-01-19T09:38:35.291Z,8.27
2023-01-19T09:41:03.667Z,8.38
2023-01-19T09:43:43.898Z,8.20
2023-01-19T09:46:27.904Z,8.27
2023-01-19T09:49:03.353Z,8.51
2023-01-19T09:51:38.478Z,8.47
2023-01-19T09:54:23.387Z,8.49
2023-01-19T09:56:53.735Z,8.46
2023-01-19T09:59:25.345Z,8.59
2023-01-19T10:02:23.050Z,8.63
2023-01-19T10:05:02.921Z,8.87
2023-01-19T10:07:59.717Z,9.00
2023-01-19T10:10:31.657Z,9.17
2023-01-19T10:13:22.542Z,9.16
2023-01-19T10:16:21.165Z,8.86
2023-01-19T10:18:53.064Z,8.53
2023-01-19T10:21:39.375Z,8.35
2023-01-19T10:24:29.634Z,8.39
2023-01-19T10:26:58.005Z,8.17
2023-01-19T10:29:33.854Z,8.11
2023-01-19T10:32:07.415Z,8.03
2023-01-19T10:34:36.587Z,7.62
2023-01-19T10:37:22.106Z,7.49
2023-01-19T10:39:57.490Z,7.55
2023-01-19T10:42:29.874Z,7.56
2023-01-19T10:44:58.817Z,7.55
2023-01-19T10:47:34.794Z,7.51
2023-01-19T10:50:24.909Z,7.32
2023-01-19T10:53:36.178Z,7.18
2023-01-19T10:56:23.626Z,7.30
2023-01-19T10:58:52.436Z,7.02
2023-01-19T11:01:26.957Z,6.98
2023-01-19T11:03:56.095Z,6.69
2023-01-19T11:06:28.152Z,6.72
2023-01-19T11:09:21.358Z,6.61
2023-01-19T11:11:52.503Z,6.47
2023-01-19T11:14:24.660Z,6.82
2023-01-19T11:16:58.373Z,6.97
2023-01-19T11:19:28.194Z,7.18
2023-01-19T11:22:25.842Z,7.15
2023-01-19T11:24:58.849Z,7.02
2023-01-19T11:27:28.320Z,7.02
2023-01-19T11:30:24.506Z,7.00
2023-01-19T11:32:56.445Z,7.21
2023-01-19T11:35:35.443Z,7.26
2023-01-19T11:38:13.772Z,7.30
2023-01-19T11:40:47.566Z,7.25
2023-01-19T11:43:16.883Z,7.20
2023-01-19T11:45:46.286Z,7.34
2023-01-19T11:48:27.732Z,7.46
2023-01-19T11:51:01.251Z,7.53
2023-01-19T11:53:34.114Z,7.72
2023-01-19T11:56:15.237Z,7.83
2023-01-19T11:58:45.368Z,7.90
2023-01-19T12:01:22.446Z,8.04
2023-01-19T12:04:05.639Z,7.93
2023-01-19T12:06:39.637Z,8.11
2023-01-19T12:09:14.065Z,8.24
2023-01-19T12:11:49.187Z,8.53
2023-01-19T12:14:23.347Z,8.54
2023-01-19T12:16:55.409Z,8.85
2023-01-19T12:19:43.366Z,8.99
2023-01-19T12:22:17.901Z,9.37
2023-01-19T12:25:01.184Z,9.63
2023-01-19T12:27:43.832Z,9.87
2023-01-19T12:30:32.681Z,10.00
2023-01-19T12:33:35.409Z,10.25
2023-01-19T12:36:27.001Z,10.48
2023-01-19T12:39:22.733Z,10.67
2023-01-19T12:42:16.236Z,11.02
2023-01-19T12:44:49.252Z,11.03
2023-01-19T12:47:24.142Z,10.92
2023-01-19T12:49:56.826Z,11.19
2023-01-19T12:52:48.906Z,11.20
2023-01-19T12:55:31.648Z,11.45
2023-01-19T12:58:13.973Z,11.52
2023-01-19T13:00:44.959Z,11.56
2023-01-19T13:03:25.759Z,11.43
2023-01-19T13:05:55.915Z,11.47
2023-01-19T13:08:49.698Z,11.43
2023-01-19T13:11:20.119Z,11.65
2023-01-19T13:14:18.038Z,11.65
2023-01-19T13:16:57.806Z,11.77
2023-01-19T13:19:37.401Z,11.87
2023-01-19T13:22:43.355Z,11.75
2023-01-19T13:25:21.668Z,11.57
2023-01-19T13:27:50.341Z,11.69
2023-01-19T13:30:22.428Z,11.60
2023-01-19T13:32:51.621Z,11.91
2023-01-19T13:35:21.172Z,11.91
2023-01-19T13:37:51.502Z,11.70
2023-01-19T13:40:26.467Z,11.65
2023-01-19T13:42:55.087Z,11.94
2023-01-19T13:45:31.835Z,11.82
2023-01-19T13:48:03.124Z,11.66
2023-01-19T13:50:34.219Z,11.82
2023-01-19T13:53:02.623Z,11.71
2023-01-19T13:55:32.083Z,11.86
2023-01-19T13:58:00.662Z,11.76
2023-01-19T14:00:30.403Z,11.68
2023-01-19T14:03:14.123Z,11.68
2023-01-19T14:05:44.282Z,11.59
2023-01-19T14:08:14.720Z,11.74
2023-01-19T14:10:48.125Z,11.80
2023-01-19T14:13:23.090Z,11.77
2023-01-19T14:15:56.692Z,11.63
2023-01-19T14:18:28.221Z,11.78
2023-01-19T14:21:06.192Z,11.64
2023-01-19T14:23:48.952Z,11.55
2023-01-19T14:26:52.311Z,11.58
2023-01-19T14:29:34.400Z,11.50
2023-01-19T14:32:18.036Z,11.44
2023-01-19T14:34:51.091Z,11.26
2023-01-19T14:37:32.933Z,11.09
2023-01-19T14:40:16.999Z,11.08
2023-01-19T14:42:59.906Z,11.12
2023-01-19T14:45:34.318Z,11.19
2023-01-19T14:48:19.651Z,11.27
2023-01-19T14:51:02.508Z,11.26
2023-01-19T14:53:37.591Z,11.20
2023-01-19T14:56:07.105Z,11.21
2023-01-19T14:58:36.107Z,11.39
2023-01-19T15:01:05.733Z,11.44
2023-01-19T15:03:44.418Z,11.48
2023-01-19T15:06:19.092Z,11.42
2023-01-19T15:08:48.179Z,11.47
2023-01-19T15:11:26.055Z,11.53
2023-01-19T15:13:54.715Z,11.49
2023-01-19T15:16:28.199Z,11.63
2023-01-19T15:18:56.932Z,11.60
2023-01-19T15:21:25.156Z,11.63
2023-01-19T15:23:55.111Z,11.38
2023-01-19T15:26:25.554Z,11.51
2023-01-19T15:28:56.512Z,11.69
2023-01-19T15:31:27.754Z,11.57
2023-01-19T15:33:57.406Z,11.49
2023-01-19T15:36:27.430Z,11.52
2023-01-19T15:38:56.325Z,11.70
2023-01-19T15:41:29.522Z,11.63
2023-01-19T15:44:01.469Z,11.53
2023-01-19T15:46:29.912Z,11.53
2023-01-19T15:48:59.255Z,11.60
2023-01-19T15:51:28.218Z,11.57
2023-01-19T15:53:57.937Z,11.62
2023-01-19T15:56:29.166Z,11.75
2023-01-19T15:58:58.935Z,11.85
2023-01-19T16:01:29.526Z,11.78
2023-01-19T16:04:05.567Z,11.68
2023-01-19T16:06:35.142Z,11.77
2023-01-19T16:09:03.856Z,11.92
2023-01-19T16:11:34.221Z,11.74
2023-01-19T16:14:02.766Z,11.81
2023-01-19T16:16:31.222Z,11.90
2023-01-19T16:18:59.719Z,11.98
2023-01-19T16:21:28.636Z,11.87
2023-01-19T16:23:57.157Z,11.85
2023-01-19T16:26:34.100Z,11.99
2023-01-19T16:29:06.002Z,12.20
2023-01-19T16:31:38.877Z,12.43
2023-01-19T16:34:08.854Z,12.55
2023-01-19T16:36:41.018Z,12.65
2023-01-19T16:39:15.115Z,12.49
2023-01-19T16:41:48.448Z,12.75
2023-01-19T16:44:20.546Z,12.90
2023-01-19T16:46:49.145Z,13.03
2023-01-19T16:49:22.241Z,12.92
2023-01-19T16:51:51.909Z,13.16
2023-01-19T16:54:22.487Z,13.23
2023-01-19T16:56:51.129Z,13.40
2023-01-19T16:59:21.203Z,13.63
2023-01-19T17:01:50.959Z,13.80
2023-01-19T17:04:21.603Z,13.97
2023-01-19T17:06:50.003Z,13.96
2023-01-19T17:09:20.112Z,14.32
2023-01-19T17:11:48.438Z,14.47
2023-01-19T17:14:20.857Z,14.39
2023-01-19T17:16:50.414Z,14.64
2023-01-19T17:19:20.424Z,14.55
2023-01-19T17:21:49.491Z,14.61
2023-01-19T17:24:18.613Z,14.83
2023-01-19T17:26:47.538Z,14.75
2023-01-19T17:29:16.442Z,14.95
2023-01-19T17:31:45.423Z,14.83
2023-01-19T17:34:16.038Z,15.06
2023-01-19T17:36:44.767Z,14.82
2023-01-19T17:39:14.314Z,15.51
2023-01-19T17:41:42.880Z,15.31
2023-01-19T17:44:11.520Z,15.42
2023-01-19T17:46:40.256Z,15.56
2023-01-19T17:49:08.769Z,15.57
2023-01-19T17:51:37.466Z,15.39
2023-01-19T17:54:06.173Z,15.60
2023-01-19T17:56:35.394Z,15.66
2023-01-19T17:59:05.071Z,15.64
2023-01-19T18:01:37.619Z,15.48
2023-01-19T18:04:08.109Z,15.93
2023-01-19T18:06:37.241Z,15.65
2023-01-19T18:09:06.494Z,15.94
2023-01-19T18:11:36.158Z,15.71
2023-01-19T18:14:05.831Z,15.69
2023-01-19T18:16:34.910Z,15.36
2023-01-19T18:19:03.422Z,15.14
2023-01-19T18:21:31.845Z,15.12
2023-01-19T18:24:02.552Z,15.05
2023-01-19T18:26:32.527Z,14.83
2023-01-19T18:29:01.373Z,14.90
2023-01-19T18:31:29.854Z,15.04
2023-01-19T18:33:58.818Z,15.08
2023-01-19T18:36:27.429Z,15.13
2023-01-19T18:38:55.746Z,15.11
2023-01-19T18:41:24.317Z,14.88
2023-01-19T18:43:56.774Z,15.02
2023-01-19T18:46:26.902Z,15.02
2023-01-19T18:48:55.234Z,15.02
2023-01-19T18:51:23.469Z,14.97
2023-01-19T18:53:52.099Z,15.02
2023-01-19T18:56:20.368Z,15.20
2023-01-19T18:58:48.580Z,15.27
2023-01-19T19:01:20.451Z,15.25
2023-01-19T19:03:48.823Z,15.56
2023-01-19T19:06:18.361Z,15.87
2023-01-19T19:08:55.907Z,16.04
2023-01-19T19:11:25.532Z,16.31
2023-01-19T19:13:56.993Z,16.26
2023-01-19T19:16:25.648Z,16.18
2023-01-19T19:18:54.022Z,16.26
2023-01-19T19:21:23.521Z,16.23
2023-01-19T19:23:54.470Z,16.94
2023-01-19T19:26:25.883Z,16.91
2023-01-19T19:28:55.448Z,17.08
2023-01-19T19:31:27.078Z,17.00
2023-01-19T19:33:57.233Z,17.45
2023-01-19T19:36:28.802Z,17.52
2023-01-19T19:38:59.552Z,17.47
2023-01-19T19:41:28.884Z,17.67
2023-01-19T19:43:57.128Z,17.68
2023-01-19T19:46:26.591Z,17.91
2023-01-19T19:48:56.160Z,18.32
2023-01-19T19:51:27.761Z,18.17
2023-01-19T19:53:58.422Z,18.43
2023-01-19T19:56:30.225Z,18.66
2023-01-19T19:58:59.977Z,18.82
2023-01-19T20:01:32.961Z,19.26
2023-01-19T20:04:10.963Z,19.44
2023-01-19T20:06:41.704Z,19.27
2023-01-19T20:09:12.452Z,19.33
2023-01-19T20:11:42.201Z,19.45
2023-01-19T20:14:13.276Z,19.40
2023-01-19T20:16:42.934Z,19.82
2023-01-19T20:19:11.916Z,19.88
2023-01-19T20:21:42.081Z,19.85
2023-01-19T20:24:17.617Z,19.74
2023-01-19T20:26:50.015Z,19.67
2023-01-19T20:29:20.177Z,19.94
2023-01-19T20:31:53.522Z,19.70
2023-01-19T20:34:26.472Z,19.88
2023-01-19T20:36:55.647Z,19.81
2023-01-19T20:39:24.674Z,19.99
2023-01-19T20:41:53.804Z,20.60
2023-01-19T20:44:25.612Z,20.75
2023-01-19T20:46:54.951Z,21.04
2023-01-19T20:49:23.687Z,21.09
2023-01-19T20:51:52.281Z,21.40
2023-01-19T20:54:24.495Z,21.13
2023-01-19T20:56:52.997Z,21.38
2023-01-19T20:59:21.670Z,21.56
2023-01-19T21:01:50.689Z,21.53
2023-01-19T21:04:19.331Z,21.90
2023-01-19T21:06:47.659Z,21.83
2023-01-19T21:09:15.959Z,21.94
2023-01-19T21:11:45.487Z,22.17
2023-01-19T21:14:15.307Z,22.07
2023-01-19T21:16:43.616Z,22.28
2023-01-19T21:19:12.083Z,22.04
2023-01-19T21:21:40.746Z,22.45
2023-01-19T21:24:10.832Z,22.47
2023-01-19T21:26:39.300Z,22.77
2023-01-19T21:29:09.344Z,22.71
2023-01-19T21:31:38.065Z,23.37
2023-01-19T21:34:07.138Z,23.42
2023-01-19T21:36:36.260Z,23.58
2023-01-19T21:39:04.476Z,23.67
2023-01-19T21:41:32.727Z,23.18
2023-01-19T21:44:01.787Z,23.84
2023-01-19T21:46:30.577Z,24.05
2023-01-19T21:49:01.327Z,24.11
2023-01-19T21:51:32.287Z,24.02
2023-01-19T21:54:05.199Z,24.19
2023-01-19T21:56:34.912Z,24.06
2023-01-19T21:59:03.185Z,24.18
2023-01-19T22:01:33.489Z,24.02
2023-01-19T22:04:02.601Z,24.61
2023-01-19T22:06:30.932Z,24.48
2023-01-19T22:08:59.484Z,24.35
2023-01-19T22:11:29.005Z,24.42
2023-01-19T22:13:57.608Z,24.35
2023-01-19T22:16:28.434Z,24.39
2023-01-19T22:19:01.564Z,24.78
2023-01-19T22:21:34.174Z,24.57
2023-01-19T22:24:04.553Z,24.26
2023-01-19T22:26:33.708Z,24.42
2023-01-19T22:29:03.838Z,24.38
2023-01-19T22:31:32.722Z,24.28
2023-01-19T22:34:01.055Z,24.93
2023-01-19T22:36:31.590Z,24.66
2023-01-19T22:39:11.041Z,24.70
2023-01-19T22:41:41.754Z,24.93
2023-01-19T22:44:19.052Z,25.15
2023-01-19T22:46:48.778Z,25.25
2023-01-19T22:49:18.516Z,25.63
2023-01-19T22:51:47.704Z,25.82
2023-01-19T22:54:15.959Z,25.71
2023-01-19T22:56:44.254Z,25.68
2023-01-19T22:59:12.671Z,26.11
2023-01-19T23:01:42.799Z,25.77
2023-01-19T23:04:14.504Z,26.11
2023-01-19T23:06:43.390Z,25.95
2023-01-19T23:09:14.317Z,25.85
2023-01-19T23:11:45.756Z,25.91
2023-01-19T23:14:17.197Z,25.99
2023-01-19T23:16:45.998Z,25.95
2023-01-19T23:19:14.709Z,26.40
2023-01-19T23:21:43.878Z,26.50
2023-01-19T23:24:13.080Z,26.52
2023-01-19T23:26:41.483Z,26.34
2023-01-19T23:29:15.075Z,26.18
2023-01-19T23:31:46.884Z,26.38
2023-01-19T23:34:15.497Z,26.80
2023-01-19T23:36:44.939Z,27.01
2023-01-19T23:39:21.899Z,26.77
2023-01-19T23:41:50.136Z,26.69
2023-01-19T23:44:18.744Z,26.88
2023-01-19T23:46:47.821Z,27.27
2023-01-19T23:49:16.537Z,27.33
2023-01-19T23:51:44.807Z,27.39
2023-01-19T23:54:14.075Z,27.26
2023-01-19T23:56:42.525Z,26.68
2023-01-19T23:59:13.363Z,26.98
